Time;durP1;ratioP1;P1;durP2;ratioP2;P2;SDS_P1;SDS_P2;PMS_P1;PMS_P2;Temp;Humidity;BMP_temperature;BMP_pressure;BME280_temperature;BME280_humidity;BME280_pressure;Samples;Min_cycle;Max_cycle;Signal;HPM_P1;HPM_P2
2021/11/03 00:01:15;;;;;;;31.60;14.10;;;;;;;6.73;83.15;99107.08;113761;1198;22449;-76
2021/11/03 00:03:46;;;;;;;33.20;13.80;;;;;;;6.74;83.04;99108.21;113498;1198;24460;-76
2021/11/03 00:06:16;;;;;;;31.60;14.30;;;;;;;6.75;82.94;99112.52;113818;1198;22441;-76
2021/11/03 00:08:45;;;;;;;30.20;13.50;;;;;;;6.75;82.91;99111.09;113810;1198;23098;-76
2021/11/03 00:11:14;;;;;;;32.90;14.00;;;;;;;6.74;82.88;99111.69;113774;1198;24200;-77
2021/11/03 00:13:43;;;;;;;36.10;14.40;;;;;;;6.71;82.77;99108.83;113634;1198;22474;-76
2021/11/03 00:16:12;;;;;;;36.70;15.90;;;;;;;6.69;82.77;99112.83;114034;1198;22552;-76
2021/11/03 00:18:40;;;;;;;40.60;17.10;;;;;;;6.67;82.91;99113.02;113827;1198;22542;-77
2021/11/03 00:21:08;;;;;;;40.30;18.00;;;;;;;6.66;82.96;99114.38;113702;1198;24254;-76
2021/11/03 00:23:37;;;;;;;40.00;18.90;;;;;;;6.64;82.96;99118.73;113828;1198;22433;-76
2021/11/03 00:26:05;;;;;;;42.80;19.10;;;;;;;6.62;82.94;99120.32;113861;1198;22392;-75
2021/11/03 00:28:33;;;;;;;40.10;18.90;;;;;;;6.60;82.96;99124.32;113401;1199;24040;-76
2021/11/03 00:31:01;;;;;;;44.00;19.60;;;;;;;6.59;82.95;99128.68;113523;1199;24207;-76
2021/11/03 00:33:32;;;;;;;39.40;18.30;;;;;;;6.57;82.94;99130.52;113701;1198;25173;-76
2021/11/03 00:36:00;;;;;;;39.90;16.40;;;;;;;6.56;82.88;99133.98;113804;1198;27275;-76
2021/11/03 00:38:28;;;;;;;37.10;16.90;;;;;;;6.55;82.81;99138.10;113705;1198;24160;-76
2021/11/03 00:40:56;;;;;;;40.50;17.90;;;;;;;6.53;82.89;99139.23;113722;1198;22579;-76
2021/11/03 00:43:25;;;;;;;39.00;17.20;;;;;;;6.52;82.99;99137.39;113745;1198;22605;-75
2021/11/03 00:45:55;;;;;;;34.70;16.30;;;;;;;6.51;82.86;99136.73;113699;1198;22560;-75
2021/11/03 00:48:22;;;;;;;35.50;16.40;;;;;;;6.49;82.78;99132.30;113720;1198;22560;-76
2021/11/03 00:50:53;;;;;;;38.40;18.00;;;;;;;6.46;82.78;99137.04;113762;1190;22616;-76
2021/11/03 00:53:26;;;;;;;33.20;14.80;;;;;;;6.42;82.76;99134.95;113733;1198;22448;-76
2021/11/03 00:55:54;;;;;;;37.00;16.80;;;;;;;6.38;82.47;99137.00;113619;1199;22757;-76
2021/11/03 00:58:21;;;;;;;37.50;15.20;;;;;;;6.35;82.41;99133.45;113769;1198;22422;-77
2021/11/03 01:00:49;;;;;;;32.50;16.30;;;;;;;6.33;82.20;99134.53;113721;1198;26696;-76
2021/11/03 01:03:18;;;;;;;35.20;16.20;;;;;;;6.29;82.22;99133.02;113688;1198;22419;-75
2021/11/03 01:05:46;;;;;;;30.80;14.80;;;;;;;6.25;81.96;99135.16;113700;1199;24216;-76
2021/11/03 01:08:16;;;;;;;33.20;14.70;;;;;;;6.19;81.85;99135.74;113792;1193;22425;-76
2021/11/03 01:10:46;;;;;;;33.10;14.80;;;;;;;6.13;81.83;99139.06;113789;1198;22458;-75
2021/11/03 01:13:18;;;;;;;34.20;13.80;;;;;;;6.09;81.78;99141.96;113739;1198;26284;-76
2021/11/03 01:15:47;;;;;;;34.40;14.50;;;;;;;6.04;81.64;99141.20;113789;1198;25225;-75
2021/11/03 01:18:16;;;;;;;34.40;14.40;;;;;;;5.97;81.59;99146.25;113571;1198;22498;-76
2021/11/03 01:20:45;;;;;;;36.60;15.60;;;;;;;5.90;81.57;99147.73;113885;1197;24103;-76
2021/11/03 01:23:13;;;;;;;36.70;15.70;;;;;;;5.84;81.47;99145.94;113577;1199;22519;-76
2021/11/03 01:25:41;;;;;;;34.50;15.70;;;;;;;5.78;81.41;99148.46;113724;1198;25350;-76
2021/11/03 01:28:09;;;;;;;39.30;16.90;;;;;;;5.72;81.49;99147.84;113728;1198;22650;-76
2021/11/03 01:30:37;;;;;;;31.30;14.60;;;;;;;5.67;81.64;99146.83;113724;1198;23848;-76
2021/11/03 01:33:05;;;;;;;34.00;15.60;;;;;;;5.64;81.64;99148.73;113734;1198;23174;-75
2021/11/03 01:35:33;;;;;;;34.20;15.30;;;;;;;5.59;82.00;99145.11;113705;1183;24148;-76
2021/11/03 01:38:01;;;;;;;36.60;16.30;;;;;;;5.56;82.00;99148.83;113751;1183;24050;-75
2021/11/03 01:40:34;;;;;;;35.00;16.00;;;;;;;5.52;81.99;99145.86;113528;1199;22445;-76
2021/11/03 01:43:03;;;;;;;36.50;14.60;;;;;;;5.48;81.92;99145.83;113693;1199;23130;-75
2021/11/03 01:45:33;;;;;;;36.80;15.30;;;;;;;5.45;81.94;99148.58;113694;1198;22826;-76
2021/11/03 01:48:03;;;;;;;31.00;15.20;;;;;;;5.42;82.01;99150.17;113827;1198;22448;-76
2021/11/03 01:50:36;;;;;;;29.20;13.80;;;;;;;5.40;82.07;99145.44;113783;1198;22430;-76
2021/11/03 01:53:10;;;;;;;29.60;13.30;;;;;;;5.38;82.02;99147.36;113480;1199;24208;-75
2021/11/03 01:55:41;;;;;;;28.90;13.90;;;;;;;5.36;82.06;99148.48;113692;1198;22424;-76
2021/11/03 01:58:15;;;;;;;32.80;13.70;;;;;;;5.34;82.07;99150.16;113937;1198;22463;-77
2021/11/03 02:00:46;;;;;;;29.60;14.30;;;;;;;5.32;81.98;99147.89;113716;1198;23198;-77
2021/11/03 02:03:18;;;;;;;28.80;13.50;;;;;;;5.27;81.83;99147.73;113502;1199;22556;-76
2021/11/03 02:05:50;;;;;;;32.00;14.20;;;;;;;5.24;81.78;99149.50;113713;1194;24639;-76
2021/11/03 02:08:19;;;;;;;30.30;13.20;;;;;;;5.21;81.68;99146.07;113865;1198;22440;-75
2021/11/03 02:10:47;;;;;;;30.70;15.00;;;;;;;5.17;81.54;99146.34;113718;1198;24157;-76
2021/11/03 02:13:15;;;;;;;31.40;12.60;;;;;;;5.14;81.62;99143.95;113719;1198;22552;-77
2021/11/03 02:15:44;;;;;;;35.70;14.30;;;;;;;5.11;81.48;99146.10;113369;1199;22449;-76
2021/11/03 02:18:16;;;;;;;31.40;13.70;;;;;;;5.07;81.48;99144.45;113589;1198;22457;-75
2021/11/03 02:20:47;;;;;;;30.90;13.40;;;;;;;5.04;81.29;99143.97;113824;1198;24090;-76
2021/11/03 02:23:22;;;;;;;30.70;12.60;;;;;;;5.00;81.29;99142.92;113843;1198;22429;-76
2021/11/03 02:25:56;;;;;;;28.70;13.30;;;;;;;4.94;81.29;99139.87;113452;1199;22470;-75
2021/11/03 02:28:25;;;;;;;32.10;13.60;;;;;;;4.91;81.27;99141.17;113712;1197;22436;-76
2021/11/03 02:30:53;;;;;;;29.80;13.80;;;;;;;4.87;81.12;99137.95;113826;1198;25025;-77
2021/11/03 02:33:23;;;;;;;31.80;13.40;;;;;;;4.83;81.19;99134.63;113752;1198;26024;-76
2021/11/03 02:35:59;;;;;;;28.30;12.50;;;;;;;4.78;81.01;99131.79;113774;1183;22610;-75
2021/11/03 02:38:32;;;;;;;31.30;14.40;;;;;;;4.74;80.99;99129.78;113771;1197;22429;-75
2021/11/03 02:41:08;;;;;;;33.30;13.90;;;;;;;4.70;81.28;99126.73;113785;1198;22441;-75
2021/11/03 02:43:42;;;;;;;29.40;12.60;;;;;;;4.67;80.98;99124.17;113804;1198;22416;-76
2021/11/03 02:46:11;;;;;;;30.00;12.60;;;;;;;4.61;80.84;99120.67;113771;1198;22441;-76
2021/11/03 02:48:41;;;;;;;33.50;14.50;;;;;;;4.58;80.96;99125.67;113734;1197;22436;-75
2021/11/03 02:51:13;;;;;;;32.70;13.00;;;;;;;4.55;80.99;99126.52;113756;1198;22539;-76
2021/11/03 02:53:44;;;;;;;29.80;12.10;;;;;;;4.52;81.08;99128.03;113661;1198;22430;-76
2021/11/03 02:56:14;;;;;;;31.00;11.60;;;;;;;4.47;80.98;99128.82;113853;1190;24150;-76
2021/11/03 02:58:45;;;;;;;29.30;12.60;;;;;;;4.41;80.96;99132.23;113734;1198;22566;-76
2021/11/03 03:01:21;;;;;;;29.80;12.00;;;;;;;4.36;80.92;99128.66;113764;1198;25181;-76
2021/11/03 03:03:50;;;;;;;27.30;11.20;;;;;;;4.33;80.89;99127.08;113832;1198;25257;-76
2021/11/03 03:06:23;;;;;;;28.30;12.50;;;;;;;4.31;80.88;99132.32;113528;1192;22882;-76
2021/11/03 03:08:51;;;;;;;33.10;13.30;;;;;;;4.27;80.91;99128.77;113755;1190;22503;-75
2021/11/03 03:11:20;;;;;;;31.80;13.50;;;;;;;4.23;81.02;99132.98;113841;1198;24046;-76
2021/11/03 03:13:49;;;;;;;29.30;12.60;;;;;;;4.19;80.87;99129.20;113744;1198;22438;-77
2021/11/03 03:16:18;;;;;;;31.00;12.50;;;;;;;4.13;80.90;99129.24;113849;1198;25324;-76
2021/11/03 03:18:46;;;;;;;28.50;11.60;;;;;;;4.09;80.80;99130.91;113705;1190;22418;-76
2021/11/03 03:21:16;;;;;;;25.00;9.70;;;;;;;4.06;80.85;99134.35;113463;1199;22532;-76
2021/11/03 03:23:44;;;;;;;26.60;10.20;;;;;;;3.99;80.62;99133.00;113749;1197;25167;-76
2021/11/03 03:26:17;;;;;;;28.20;10.40;;;;;;;3.93;80.50;99132.41;113653;1198;24088;-76
2021/11/03 03:28:45;;;;;;;25.40;10.80;;;;;;;3.86;80.41;99137.14;113601;1198;22435;-76
2021/11/03 03:31:14;;;;;;;27.00;11.10;;;;;;;3.82;80.65;99146.06;113456;1199;25134;-76
2021/11/03 03:33:43;;;;;;;25.00;10.30;;;;;;;3.82;81.03;99142.66;113698;1199;22448;-76
2021/11/03 03:36:12;;;;;;;25.50;9.80;;;;;;;3.81;80.67;99140.97;113922;1198;24304;-76
2021/11/03 03:38:40;;;;;;;28.60;10.80;;;;;;;3.75;80.58;99144.61;114059;1198;22486;-76
2021/11/03 03:41:08;;;;;;;29.50;11.20;;;;;;;3.67;80.43;99148.20;113738;1194;24807;-76
2021/11/03 03:43:37;;;;;;;30.10;11.30;;;;;;;3.61;80.37;99152.30;114616;1198;22456;-76
2021/11/03 03:46:05;;;;;;;29.50;9.70;;;;;;;3.55;80.36;99160.36;113779;1198;25180;-76
2021/11/03 03:48:32;;;;;;;26.70;11.30;;;;;;;3.51;80.38;99160.63;113729;1198;22439;-77
2021/11/03 03:51:01;;;;;;;28.40;10.80;;;;;;;3.49;80.29;99163.96;113701;1198;22417;-77
2021/11/03 03:53:29;;;;;;;26.00;11.20;;;;;;;3.43;80.30;99168.77;113824;1190;22412;-76
2021/11/03 03:55:58;;;;;;;32.70;11.80;;;;;;;3.40;80.50;99170.88;113776;1192;22552;-76
2021/11/03 03:58:26;;;;;;;34.40;11.40;;;;;;;3.40;80.57;99174.98;114192;1198;25031;-76
2021/11/03 04:00:54;;;;;;;29.30;12.70;;;;;;;3.39;80.72;99183.94;113765;1198;25169;-76
2021/11/03 04:03:23;;;;;;;32.90;11.50;;;;;;;3.37;80.70;99187.91;113440;1198;24065;-76
2021/11/03 04:05:51;;;;;;;27.10;11.50;;;;;;;3.34;80.79;99187.84;113814;1198;25137;-77
2021/11/03 04:08:20;;;;;;;28.00;10.70;;;;;;;3.32;80.96;99189.89;113730;1198;22459;-75
2021/11/03 04:10:48;;;;;;;28.60;11.60;;;;;;;3.29;80.80;99193.77;113409;1199;22439;-76
2021/11/03 04:13:16;;;;;;;27.90;10.20;;;;;;;3.26;80.87;99193.02;113739;1198;25339;-76
2021/11/03 04:15:45;;;;;;;26.50;10.40;;;;;;;3.22;80.68;99192.38;113751;1198;24039;-76
2021/11/03 04:18:13;;;;;;;27.40;10.20;;;;;;;3.19;80.55;99182.68;113748;1198;25107;-77
2021/11/03 04:20:41;;;;;;;25.10;9.80;;;;;;;3.14;80.47;99185.70;113379;1198;22430;-76
2021/11/03 04:23:09;;;;;;;26.20;9.90;;;;;;;3.10;80.48;99193.48;113688;1198;25058;-76
2021/11/03 04:25:40;;;;;;;26.30;10.90;;;;;;;3.04;80.45;99195.80;113437;1199;22442;-77
2021/11/03 04:28:09;;;;;;;25.20;10.20;;;;;;;3.00;80.47;99188.86;113739;1198;22458;-75
2021/11/03 04:30:37;;;;;;;28.40;10.00;;;;;;;2.99;80.51;99188.52;113525;1199;24614;-76
2021/11/03 04:33:06;;;;;;;25.90;9.30;;;;;;;2.95;80.47;99190.16;113795;1198;23108;-76
2021/11/03 04:35:35;;;;;;;26.40;9.70;;;;;;;2.90;80.31;99186.73;113705;1198;25507;-76
2021/11/03 04:38:04;;;;;;;28.50;9.40;;;;;;;2.87;80.33;99180.07;113747;1198;22453;-76
2021/11/03 04:40:33;;;;;;;23.50;9.30;;;;;;;2.83;80.33;99178.57;113715;1198;23152;-76
2021/11/03 04:43:00;;;;;;;26.20;9.20;;;;;;;2.79;80.33;99185.66;113751;1198;22479;-75
2021/11/03 04:45:28;;;;;;;36.70;11.00;;;;;;;2.76;80.45;99189.48;113707;1198;22635;-76
2021/11/03 04:47:56;;;;;;;36.40;10.90;;;;;;;2.74;80.53;99191.52;113485;1199;25139;-76
2021/11/03 04:50:30;;;;;;;28.40;10.80;;;;;;;2.72;80.53;99185.54;113794;1198;22451;-76
2021/11/03 04:52:59;;;;;;;27.50;11.40;;;;;;;2.70;80.51;99188.67;113719;1198;25055;-77
2021/11/03 04:55:27;;;;;;;26.50;11.30;;;;;;;2.69;80.48;99186.13;113975;1198;24041;-77
2021/11/03 04:57:55;;;;;;;33.20;11.90;;;;;;;2.66;80.48;99185.45;113742;1192;22447;-77
2021/11/03 05:00:33;;;;;;;30.80;10.40;;;;;;;2.66;80.48;99185.77;113726;1198;22487;-78
2021/11/03 05:03:01;;;;;;;27.70;10.80;;;;;;;2.67;80.66;99186.52;113586;1199;22471;-77
2021/11/03 05:05:30;;;;;;;30.30;9.70;;;;;;;2.67;80.64;99187.83;113514;1199;24114;-75
2021/11/03 05:07:58;;;;;;;28.20;10.10;;;;;;;2.65;80.55;99188.23;113823;1190;22741;-75
2021/11/03 05:10:26;;;;;;;25.90;10.10;;;;;;;2.62;80.58;99192.30;113809;1198;22441;-75
2021/11/03 05:12:54;;;;;;;28.50;9.20;;;;;;;2.59;80.73;99194.01;113868;1198;22643;-75
2021/11/03 05:15:22;;;;;;;27.70;10.30;;;;;;;2.56;80.79;99193.77;113785;1198;22480;-75
2021/11/03 05:17:51;;;;;;;25.70;10.60;;;;;;;2.55;80.74;99196.83;113775;1198;25074;-75
2021/11/03 05:20:19;;;;;;;25.40;10.30;;;;;;;2.52;80.63;99199.80;113895;1198;22436;-75
2021/11/03 05:22:48;;;;;;;27.00;11.00;;;;;;;2.50;80.65;99198.25;113734;1198;22452;-75
2021/11/03 05:25:20;;;;;;;31.20;12.80;;;;;;;2.49;80.73;99198.20;113649;1199;22478;-75
2021/11/03 05:27:49;;;;;;;37.00;14.10;;;;;;;2.48;80.86;99204.59;113918;1198;22433;-75
2021/11/03 05:30:19;;;;;;;35.30;13.00;;;;;;;2.49;80.93;99210.89;113990;1198;24948;-75
2021/11/03 05:32:47;;;;;;;32.00;13.00;;;;;;;2.49;80.96;99209.31;114028;1198;24269;-75
2021/11/03 05:35:16;;;;;;;34.60;13.20;;;;;;;2.49;80.97;99212.05;113789;1198;25214;-74
2021/11/03 05:37:45;;;;;;;33.30;13.20;;;;;;;2.51;81.02;99210.52;113448;1199;22454;-74
2021/11/03 05:40:16;;;;;;;37.20;14.90;;;;;;;2.51;81.01;99207.51;113449;1199;22452;-76
2021/11/03 05:42:44;;;;;;;35.10;13.40;;;;;;;2.50;80.94;99210.05;113779;1198;22454;-75
2021/11/03 05:45:13;;;;;;;29.80;12.50;;;;;;;2.50;80.95;99215.16;113523;1198;22485;-76
2021/11/03 05:47:41;;;;;;;29.10;12.20;;;;;;;2.48;80.85;99209.42;113556;1198;22442;-76
2021/11/03 05:50:13;;;;;;;29.40;12.60;;;;;;;2.46;80.94;99210.36;113808;1198;25068;-78
2021/11/03 05:52:41;;;;;;;35.90;14.00;;;;;;;2.44;80.92;99213.47;113778;1199;24096;-76
2021/11/03 05:55:10;;;;;;;34.80;12.80;;;;;;;2.46;81.10;99215.02;113887;1198;22433;-77
2021/11/03 05:57:39;;;;;;;;;;;;;;;2.49;81.20;99217.02;113888;1198;25005;-76
2021/11/03 06:00:14;;;;;;;33.70;12.90;;;;;;;2.51;81.28;99215.13;113767;1198;22461;-76
2021/11/03 06:02:42;;;;;;;35.20;13.00;;;;;;;2.55;81.44;99219.80;113571;1199;22731;-76
2021/11/03 06:05:12;;;;;;;39.40;14.60;;;;;;;2.56;81.44;99223.68;113849;1198;22478;-76
2021/11/03 06:07:41;;;;;;;32.30;13.80;;;;;;;2.57;81.57;99227.04;114032;1198;22434;-76
2021/11/03 06:10:16;;;;;;;36.80;14.60;;;;;;;2.57;81.54;99233.71;113650;1199;25082;-76
2021/11/03 06:12:44;;;;;;;37.50;14.70;;;;;;;2.57;81.64;99237.65;114077;1198;24162;-76
2021/11/03 06:15:13;;;;;;;37.30;14.70;;;;;;;2.60;81.75;99241.80;113538;1198;25200;-76
2021/11/03 06:17:40;;;;;;;35.10;14.50;;;;;;;2.63;81.88;99244.60;113909;1198;22753;-76
2021/11/03 06:20:10;;;;;;;33.80;14.40;;;;;;;2.67;81.89;99248.88;113842;1198;22459;-76
2021/11/03 06:22:38;;;;;;;33.20;14.00;;;;;;;2.69;81.96;99247.31;114101;1193;22544;-76
2021/11/03 06:25:07;;;;;;;27.90;13.00;;;;;;;2.71;82.00;99248.66;113781;1198;22539;-76
2021/11/03 06:27:35;;;;;;;32.50;14.10;;;;;;;2.70;82.00;99247.17;113615;1199;25107;-76
2021/11/03 06:30:05;;;;;;;31.50;12.90;;;;;;;2.70;81.82;99249.55;113754;1198;22583;-76
2021/11/03 06:32:35;;;;;;;32.00;13.90;;;;;;;2.69;81.88;99251.68;113844;1198;22561;-76
2021/11/03 06:35:04;;;;;;;33.50;12.50;;;;;;;2.68;81.89;99259.36;113583;1199;22542;-76
2021/11/03 06:37:32;;;;;;;29.80;12.50;;;;;;;2.68;81.91;99263.48;113524;1198;22469;-76
2021/11/03 06:40:02;;;;;;;30.90;13.20;;;;;;;2.71;82.03;99262.20;113783;1198;22550;-76
2021/11/03 06:42:30;;;;;;;30.10;12.60;;;;;;;2.74;82.17;99260.96;113865;1198;23819;-76
2021/11/03 06:44:58;;;;;;;28.90;12.10;;;;;;;2.77;82.13;99263.98;113567;1199;23859;-76
2021/11/03 06:47:26;;;;;;;34.90;13.10;;;;;;;2.81;82.15;99265.61;113781;1198;23829;-76
2021/11/03 06:49:55;;;;;;;31.40;12.70;;;;;;;2.85;82.32;99265.67;113745;1192;24174;-76
2021/11/03 06:52:26;;;;;;;38.70;12.90;;;;;;;2.90;82.48;99267.52;113777;1198;24051;-76
2021/11/03 06:54:55;;;;;;;32.80;14.00;;;;;;;2.96;82.71;99266.74;113558;1199;22432;-76
2021/11/03 06:57:23;;;;;;;37.00;15.30;;;;;;;3.04;82.93;99270.79;113847;1198;22480;-77
2021/11/03 06:59:59;;;;;;;40.60;15.60;;;;;;;3.11;83.22;99270.21;113663;1198;24012;-76
2021/11/03 07:02:27;;;;;;;33.70;16.20;;;;;;;3.19;84.01;99269.27;113902;1198;25255;-76
2021/11/03 07:04:56;;;;;;;30.80;14.80;;;;;;;3.28;84.22;99266.92;113769;1198;22445;-76
2021/11/03 07:07:24;;;;;;;34.30;15.60;;;;;;;3.37;84.41;99266.27;113915;1198;23261;-77
2021/11/03 07:09:52;;;;;;;34.60;16.90;;;;;;;3.46;84.59;99269.15;113812;1198;22458;-77
2021/11/03 07:12:20;;;;;;;44.80;21.80;;;;;;;3.55;84.77;99272.03;113712;1199;24310;-77
2021/11/03 07:14:48;;;;;;;38.90;19.60;;;;;;;3.65;84.94;99276.75;113786;1198;24152;-77
2021/11/03 07:17:16;;;;;;;39.50;19.60;;;;;;;3.75;85.26;99281.33;113848;1199;22657;-77
2021/11/03 07:19:45;;;;;;;36.80;18.20;;;;;;;3.84;85.53;99279.42;113787;1200;23071;-76
2021/11/03 07:22:13;;;;;;;39.40;16.90;;;;;;;3.95;85.73;99275.82;113913;1198;22433;-76
2021/11/03 07:24:42;;;;;;;35.20;16.70;;;;;;;4.05;85.89;99279.12;113900;1198;24276;-76
2021/11/03 07:27:10;;;;;;;34.40;17.50;;;;;;;4.16;86.06;99279.69;113909;1198;24148;-76
2021/11/03 07:29:41;;;;;;;34.00;15.70;;;;;;;4.25;86.05;99279.63;113924;1198;23520;-76
2021/11/03 07:32:10;;;;;;;35.70;15.60;;;;;;;4.34;85.89;99285.27;113927;1198;25058;-76
2021/11/03 07:34:38;;;;;;;30.40;14.50;;;;;;;4.41;86.10;99289.10;113906;1198;22445;-76
2021/11/03 07:37:06;;;;;;;33.90;14.70;;;;;;;4.53;86.47;99294.05;113969;1198;22429;-76
2021/11/03 07:39:35;;;;;;;32.70;14.60;;;;;;;4.66;86.75;99302.09;113938;1198;22437;-76
2021/11/03 07:42:04;;;;;;;28.00;13.50;;;;;;;4.76;86.43;99301.46;113881;1198;22470;-76
2021/11/03 07:44:32;;;;;;;30.30;13.00;;;;;;;4.85;86.34;99300.38;114018;1198;22437;-76
2021/11/03 07:47:00;;;;;;;26.00;12.90;;;;;;;4.93;86.63;99296.50;113902;1198;22444;-76
2021/11/03 07:49:29;;;;;;;27.70;12.50;;;;;;;5.01;86.38;99297.65;113821;1198;26328;-76
2021/11/03 07:52:00;;;;;;;30.00;12.50;;;;;;;5.11;86.65;99305.35;113866;1198;25175;-76
2021/11/03 07:54:28;;;;;;;26.10;10.90;;;;;;;5.22;86.76;99313.95;113946;1198;22420;-77
2021/11/03 07:56:56;;;;;;;29.30;12.20;;;;;;;5.32;86.80;99317.04;113880;1198;22853;-76
2021/11/03 07:59:24;;;;;;;26.50;11.00;;;;;;;5.41;86.81;99320.95;114064;1198;22420;-77
2021/11/03 08:01:55;;;;;;;25.10;10.90;;;;;;;5.52;86.73;99322.51;113936;1193;22646;-77
2021/11/03 08:04:23;;;;;;;22.40;8.60;;;;;;;5.61;86.74;99323.55;113997;1198;25125;-77
2021/11/03 08:06:51;;;;;;;26.30;9.30;;;;;;;5.71;86.71;99323.58;113944;1198;23261;-76
2021/11/03 08:09:19;;;;;;;22.20;9.30;;;;;;;5.80;86.72;99327.67;114013;1198;22387;-76
2021/11/03 08:11:50;;;;;;;25.70;10.60;;;;;;;5.90;86.77;99328.17;114005;1198;23774;-76
2021/11/03 08:14:20;;;;;;;21.80;10.10;;;;;;;6.02;86.69;99334.23;114146;1198;22488;-76
2021/11/03 08:16:54;;;;;;;25.40;11.00;;;;;;;6.12;86.57;99334.61;114083;1198;22433;-76
2021/11/03 08:19:25;;;;;;;23.70;11.30;;;;;;;6.22;86.62;99343.75;114102;1198;22847;-76
2021/11/03 08:21:53;;;;;;;23.40;9.80;;;;;;;6.33;86.69;99345.81;114156;1198;22436;-77
2021/11/03 08:24:22;;;;;;;23.10;10.70;;;;;;;6.44;86.71;99340.80;114177;1198;22557;-76
2021/11/03 08:26:53;;;;;;;22.80;10.60;;;;;;;6.53;86.56;99336.30;114420;1198;24017;-77
2021/11/03 08:29:27;;;;;;;24.30;10.10;;;;;;;6.62;86.36;99337.68;114455;1198;22436;-77
2021/11/03 08:31:58;;;;;;;23.80;10.90;;;;;;;6.69;86.42;99336.67;114352;1198;24087;-78
2021/11/03 08:34:31;;;;;;;23.70;12.00;;;;;;;6.78;86.31;99341.31;114449;1198;22549;-77
2021/11/03 08:37:02;;;;;;;21.10;9.60;;;;;;;6.85;86.36;99334.76;114224;1198;22441;-77
2021/11/03 08:39:30;;;;;;;22.60;10.20;;;;;;;6.93;86.16;99332.80;114564;1198;22475;-77
2021/11/03 08:41:59;;;;;;;20.20;9.00;;;;;;;7.01;86.04;99333.98;114271;1198;22986;-77
2021/11/03 08:44:27;;;;;;;17.90;8.00;;;;;;;7.10;86.11;99339.52;114230;1190;22450;-77
2021/11/03 08:46:56;;;;;;;18.70;7.60;;;;;;;7.21;86.24;99342.35;114312;1198;22438;-77
2021/11/03 08:49:24;;;;;;;17.80;6.20;;;;;;;7.32;86.11;99345.17;113924;1194;23346;-77
2021/11/03 08:51:52;;;;;;;16.00;6.80;;;;;;;7.42;85.94;99346.89;114155;1190;22884;-76
2021/11/03 08:54:21;;;;;;;16.00;7.40;;;;;;;7.52;85.84;99347.91;114094;1190;24041;-77
2021/11/03 08:56:49;;;;;;;18.00;8.20;;;;;;;7.60;85.83;99343.02;114142;1194;22520;-76
2021/11/03 08:59:18;;;;;;;14.00;6.00;;;;;;;7.67;85.65;99344.84;113996;1198;24051;-76
2021/11/03 09:01:46;;;;;;;14.10;5.70;;;;;;;7.75;85.44;99345.33;114087;1198;22427;-77
2021/11/03 09:04:14;;;;;;;14.10;5.20;;;;;;;7.84;85.43;99338.09;114250;1198;24213;-77
2021/11/03 09:06:42;;;;;;;13.10;4.60;;;;;;;7.92;85.37;99339.17;114346;1198;22428;-77
2021/11/03 09:09:10;;;;;;;14.60;5.50;;;;;;;7.99;85.16;99339.98;114366;1198;22552;-77
2021/11/03 09:11:39;;;;;;;13.20;4.60;;;;;;;8.07;84.89;99334.84;114184;1198;24008;-79
2021/11/03 09:14:10;;;;;;;11.70;4.20;;;;;;;8.13;84.69;99336.20;114041;1198;22466;-79
2021/11/03 09:16:38;;;;;;;15.80;5.00;;;;;;;8.18;84.70;99336.83;114006;1198;25065;-79
2021/11/03 09:19:07;;;;;;;11.50;3.10;;;;;;;8.25;84.52;99336.73;114091;1198;24596;-79
2021/11/03 09:21:35;;;;;;;7.60;2.00;;;;;;;8.32;84.06;99335.88;113951;1198;22440;-79
2021/11/03 09:24:04;;;;;;;5.80;1.60;;;;;;;8.36;83.99;99331.73;113900;1198;22423;-79
2021/11/03 09:26:32;;;;;;;6.10;1.70;;;;;;;8.44;83.45;99329.66;113924;1198;22541;-79
2021/11/03 09:29:03;;;;;;;6.80;1.90;;;;;;;8.51;83.51;99330.77;113843;1198;23545;-78
2021/11/03 09:31:32;;;;;;;5.80;1.70;;;;;;;8.58;83.30;99331.83;113921;1177;25067;-81
2021/11/03 09:34:01;;;;;;;6.60;1.90;;;;;;;8.65;83.02;99339.59;114061;1198;22505;-80
2021/11/03 09:36:30;;;;;;;6.10;1.80;;;;;;;8.74;82.98;99338.29;114021;1183;22547;-79
2021/11/03 09:38:59;;;;;;;4.70;1.30;;;;;;;8.77;82.81;99331.39;114064;1198;22425;-79
2021/11/03 09:41:31;;;;;;;8.20;2.00;;;;;;;8.83;82.53;99329.29;113997;1190;23289;-79
2021/11/03 09:44:01;;;;;;;6.00;1.50;;;;;;;8.91;82.52;99327.09;113944;1190;24126;-79
2021/11/03 09:46:36;;;;;;;5.20;1.50;;;;;;;8.98;82.38;99322.11;114136;1198;23296;-78
2021/11/03 09:49:25;;;;;;;4.20;1.10;;;;;;;9.02;82.10;99325.65;114422;1198;24755;-79
2021/11/03 09:52:00;;;;;;;6.30;1.10;;;;;;;9.06;82.09;99326.34;113928;1199;23771;-79
2021/11/03 09:54:33;;;;;;;7.00;1.00;;;;;;;9.10;81.91;99321.56;114045;1198;25104;-79
2021/11/03 09:57:14;;;;;;;5.20;1.10;;;;;;;9.12;81.51;99316.36;114124;1198;22423;-80
2021/11/03 09:59:44;;;;;;;;;;;;;;;9.16;81.56;99318.02;114197;1193;22445;-80
2021/11/03 10:02:29;;;;;;;4.40;1.10;;;;;;;9.18;81.66;99318.50;113950;1199;25265;-79
2021/11/03 10:05:13;;;;;;;4.30;1.10;;;;;;;9.24;81.38;99320.44;113972;1199;25114;-80
2021/11/03 10:07:51;;;;;;;4.40;1.00;;;;;;;9.34;81.16;99317.44;114043;1198;25358;-79
2021/11/03 10:10:30;;;;;;;3.20;0.90;;;;;;;9.42;80.65;99315.95;114231;1198;22461;-80
2021/11/03 10:13:00;;;;;;;5.50;0.90;;;;;;;9.49;80.38;99312.31;114636;1199;23305;-79
2021/11/03 10:15:31;;;;;;;4.80;1.10;;;;;;;9.52;80.07;99305.98;113893;1199;22435;-79
2021/11/03 10:18:14;;;;;;;4.30;0.90;;;;;;;9.54;79.78;99307.04;114256;1198;25106;-79
2021/11/03 10:20:47;;;;;;;5.90;1.00;;;;;;;9.58;79.88;99307.57;114099;1199;22438;-80
2021/11/03 10:23:23;;;;;;;3.50;0.90;;;;;;;9.62;79.74;99307.45;114329;1198;22433;-80
2021/11/03 10:26:01;;;;;;;2.70;0.70;;;;;;;9.65;79.57;99310.40;114173;1198;22909;-81
2021/11/03 10:28:38;;;;;;;4.20;1.10;;;;;;;9.71;79.55;99306.09;115297;1198;22478;-80
2021/11/03 10:31:23;;;;;;;4.80;1.20;;;;;;;9.75;79.27;99301.41;114201;1197;25211;-79
2021/11/03 10:34:00;;;;;;;4.90;1.40;;;;;;;9.76;79.17;99290.38;114246;1198;25711;-80
2021/11/03 10:36:39;;;;;;;3.60;1.00;;;;;;;9.74;79.24;99286.20;114527;1190;22435;-80
2021/11/03 10:39:16;;;;;;;5.30;1.20;;;;;;;9.73;79.22;99289.23;114201;1198;24022;-80
2021/11/03 10:41:53;;;;;;;3.40;0.90;;;;;;;9.74;79.13;99286.41;114561;1198;25216;-80
2021/11/03 10:44:25;;;;;;;3.70;0.80;;;;;;;9.78;78.75;99280.20;114427;1198;22415;-80
2021/11/03 10:46:56;;;;;;;5.40;0.90;;;;;;;9.83;78.50;99274.77;114532;1198;23609;-81
2021/11/03 10:52:51;;;;;;;3.70;0.90;;;;;;;9.85;78.02;99279.74;114301;1192;24184;-80
2021/11/03 10:55:25;;;;;;;6.40;1.20;;;;;;;9.85;77.82;99276.65;114345;1199;24642;-80
2021/11/03 10:58:06;;;;;;;7.50;1.30;;;;;;;9.88;77.75;99272.73;114360;1196;22497;-80
2021/11/03 11:00:38;;;;;;;7.60;1.40;;;;;;;9.90;77.66;99268.21;115225;1198;23776;-80
2021/11/03 11:03:12;;;;;;;12.70;2.80;;;;;;;9.95;77.54;99269.86;115393;1198;25202;-80
2021/11/03 11:05:44;;;;;;;11.80;2.90;;;;;;;9.99;77.36;99266.34;114939;1198;23787;-79
2021/11/03 11:08:18;;;;;;;13.70;2.10;;;;;;;10.02;77.29;99267.38;114253;1198;22422;-80
2021/11/03 11:10:53;;;;;;;8.80;1.60;;;;;;;10.03;77.22;99265.00;114234;1199;22574;-79
2021/11/03 11:13:26;;;;;;;7.30;1.20;;;;;;;10.03;76.96;99259.06;114340;1198;22452;-80
2021/11/03 11:16:05;;;;;;;6.90;1.60;;;;;;;10.03;76.86;99260.58;114318;1198;22606;-80
2021/11/03 11:18:52;;;;;;;6.20;1.20;;;;;;;10.06;76.79;99262.77;114412;1198;23028;-80
2021/11/03 11:21:43;;;;;;;5.90;1.10;;;;;;;10.11;76.55;99264.60;114410;1193;23678;-80
2021/11/03 11:24:18;;;;;;;6.30;1.20;;;;;;;10.15;76.34;99266.11;114286;1198;23699;-80
2021/11/03 11:26:55;;;;;;;5.40;1.20;;;;;;;10.17;76.20;99258.15;114268;1198;22432;-80
2021/11/03 11:29:29;;;;;;;6.70;1.60;;;;;;;10.18;76.00;99258.36;114809;1193;25202;-80
2021/11/03 11:32:03;;;;;;;7.30;1.60;;;;;;;10.20;75.81;99260.40;114362;1199;22458;-80
2021/11/03 11:34:55;;;;;;;5.10;1.30;;;;;;;10.22;75.87;99267.35;114488;1198;22449;-80
2021/11/03 11:37:31;;;;;;;9.60;1.90;;;;;;;10.27;75.60;99267.73;114145;1193;22617;-79
2021/11/03 11:40:12;;;;;;;7.70;1.50;;;;;;;10.31;75.63;99266.94;114341;1198;23624;-80